Time;durP1;ratioP1;P1;durP2;ratioP2;P2;SDS_P1;SDS_P2;PMS_P1;PMS_P2;Temp;Humidity;BMP_temperature;BMP_pressure;BME280_temperature;BME280_humidity;BME280_pressure;Samples;Min_cycle;Max_cycle;Signal;HPM_P1;HPM_P2
2023/04/07 00:02:15;;;;;;;0.00;0.00;;;;;;;3.92;99.20;100701.09;6241776;22;20011;-78
2023/04/07 00:04:43;;;;;;;0.00;0.00;;;;;;;4.01;99.07;100711.44;6215242;22;20008;-79
2023/04/07 00:07:15;;;;;;;0.00;0.00;;;;;;;4.00;98.99;100709.78;6219890;22;20334;-79
2023/04/07 00:09:45;;;;;;;0.00;0.00;;;;;;;4.01;98.47;100710.63;6215369;22;20099;-81
2023/04/07 00:12:11;;;;;;;0.00;0.00;;;;;;;4.12;99.30;100733.47;6245745;22;20046;-78
2023/04/07 00:14:36;;;;;;;0.00;0.00;;;;;;;4.04;98.70;100717.47;6240134;22;20303;-78
2023/04/07 00:17:02;;;;;;;0.00;0.00;;;;;;;4.05;98.68;100721.84;6218588;22;20012;-78
2023/04/07 00:19:27;;;;;;;0.00;0.00;;;;;;;4.07;98.74;100731.41;6218808;22;20385;-78
2023/04/07 00:21:55;;;;;;;0.00;0.00;;;;;;;4.07;99.15;100741.41;6190860;22;20388;-79
2023/04/07 00:24:21;;;;;;;0.00;0.00;;;;;;;3.94;99.34;100721.50;6244587;22;20095;-79
2023/04/07 00:26:55;;;;;;;0.00;0.00;;;;;;;3.94;99.32;100726.91;6214766;22;20190;-80
2023/04/07 00:29:20;;;;;;;;;;;;;;;4.07;98.89;100741.41;6219808;22;20015;-79
2023/04/07 00:31:46;;;;;;;0.10;0.10;;;;;;;3.83;98.75;100705.91;6240102;22;20446;-79
2023/04/07 00:34:16;;;;;;;0.00;0.00;;;;;;;3.96;98.70;100732.09;6243695;22;20007;-78
2023/04/07 00:36:42;;;;;;;0.00;0.00;;;;;;;3.84;99.35;100713.81;6214699;22;20090;-79
2023/04/07 00:39:07;;;;;;;0.00;0.00;;;;;;;3.86;99.12;100719.00;6243135;22;20425;-79
2023/04/07 00:41:34;;;;;;;0.00;0.00;;;;;;;3.78;98.96;100711.97;6270502;22;20410;-79
2023/04/07 00:44:00;;;;;;;0.00;0.00;;;;;;;3.86;99.66;100735.25;6265872;22;20311;-79
2023/04/07 00:46:25;;;;;;;0.00;0.00;;;;;;;3.74;99.17;100728.81;6248842;22;20057;-79
2023/04/07 00:48:53;;;;;;;0.00;0.00;;;;;;;3.67;99.26;100718.03;6226645;22;20004;-79
2023/04/07 00:51:21;;;;;;;0.00;0.00;;;;;;;3.56;99.32;100716.81;6286330;22;20007;-77
2023/04/07 00:53:50;;;;;;;0.08;0.08;;;;;;;3.44;99.60;100699.59;6247444;22;20007;-78
2023/04/07 00:56:15;;;;;;;0.00;0.00;;;;;;;3.41;99.31;100700.03;6266505;22;20053;-79
2023/04/07 00:58:40;;;;;;;0.00;0.00;;;;;;;3.35;99.59;100700.88;6219512;22;20011;-80
2023/04/07 01:01:39;;;;;;;0.00;0.00;;;;;;;3.44;100.00;100718.53;6216088;22;20018;-79
2023/04/07 01:04:12;;;;;;;0.00;0.00;;;;;;;3.42;99.67;100721.44;6246924;22;20011;-79
2023/04/07 01:06:46;;;;;;;0.00;0.00;;;;;;;3.44;100.00;100729.34;6266992;22;20055;-77
2023/04/07 01:09:27;;;;;;;0.00;0.00;;;;;;;3.41;100.00;100727.06;6270590;22;20069;-78
2023/04/07 01:11:55;;;;;;;0.00;0.00;;;;;;;3.44;100.00;100732.84;6246544;22;20061;-79
2023/04/07 01:14:23;;;;;;;0.00;0.00;;;;;;;3.41;100.00;100727.06;6244952;22;20015;-79
2023/04/07 01:16:53;;;;;;;0.00;0.00;;;;;;;3.31;99.97;100722.94;6239508;22;20008;-78
2023/04/07 01:19:42;;;;;;;0.10;0.10;;;;;;;3.34;100.00;100720.84;6245613;22;20013;-79
2023/04/07 01:22:22;;;;;;;0.00;0.00;;;;;;;3.26;99.82;100708.38;6246327;22;20030;-80
2023/04/07 01:25:24;;;;;;;0.00;0.00;;;;;;;3.40;99.86;100731.66;6240815;22;20414;-78
2023/04/07 01:28:08;;;;;;;0.00;0.00;;;;;;;3.38;99.10;100735.59;6245093;22;20004;-78
2023/04/07 01:30:40;;;;;;;0.00;0.00;;;;;;;3.27;98.96;100721.69;6246843;22;20011;-78
2023/04/07 01:33:10;;;;;;;0.10;0.10;;;;;;;3.09;99.42;100691.75;6242393;22;20054;-79
2023/04/07 01:35:36;;;;;;;0.00;0.00;;;;;;;3.22;99.65;100729.56;6243008;22;20008;-78
2023/04/07 01:38:03;;;;;;;0.00;0.00;;;;;;;3.09;99.87;100716.06;6270081;22;20034;-78
2023/04/07 01:40:29;;;;;;;0.00;0.00;;;;;;;3.12;100.00;100719.19;6217109;22;20603;-78
2023/04/07 01:42:58;;;;;;;0.00;0.00;;;;;;;3.12;99.48;100716.47;6243231;22;20078;-77
2023/04/07 01:45:26;;;;;;;0.00;0.00;;;;;;;2.95;99.54;100704.47;6242024;22;20035;-77
2023/04/07 01:47:53;;;;;;;0.00;0.00;;;;;;;2.94;99.59;100700.91;6245814;22;20003;-78
2023/04/07 01:50:20;;;;;;;0.00;0.00;;;;;;;3.13;100.00;100726.25;6244354;22;20007;-78
2023/04/07 01:52:47;;;;;;;0.00;0.00;;;;;;;3.13;99.87;100722.72;6267775;22;20094;-78
2023/04/07 01:55:15;;;;;;;0.00;0.00;;;;;;;3.04;99.64;100716.72;6220929;22;20008;-78
2023/04/07 01:57:42;;;;;;;0.08;0.08;;;;;;;3.01;99.31;100721.69;6216449;22;20414;-78
2023/04/07 02:00:08;;;;;;;0.00;0.00;;;;;;;2.90;99.87;100710.47;6221408;22;20007;-79
2023/04/07 02:02:42;;;;;;;0.00;0.00;;;;;;;2.92;99.34;100718.38;6241752;22;20430;-80
2023/04/07 02:05:15;;;;;;;0.00;0.00;;;;;;;2.99;99.61;100735.41;6245331;22;20004;-79
2023/04/07 02:07:54;;;;;;;0.00;0.00;;;;;;;2.91;99.67;100728.34;6268438;22;20441;-79
2023/04/07 02:10:24;;;;;;;0.10;0.10;;;;;;;2.86;99.79;100713.81;6244595;22;20003;-79
2023/04/07 02:12:51;;;;;;;0.00;0.00;;;;;;;2.89;99.71;100727.75;6270415;22;20324;-78
2023/04/07 02:15:21;;;;;;;0.00;0.00;;;;;;;2.80;99.94;100723.56;6270789;22;20080;-79
2023/04/07 02:17:57;;;;;;;0.00;0.00;;;;;;;2.82;99.67;100724.19;6220792;22;20043;-80
2023/04/07 02:20:23;;;;;;;0.00;0.00;;;;;;;2.93;100.00;100742.47;6244003;22;20077;-79
2023/04/07 02:22:59;;;;;;;0.00;0.00;;;;;;;2.77;100.00;100718.56;6193904;22;20000;-80
2023/04/07 02:25:30;;;;;;;0.00;0.00;;;;;;;2.78;99.76;100717.53;6270903;22;20000;-79
2023/04/07 02:27:58;;;;;;;0.00;0.00;;;;;;;2.83;100.00;100731.25;6245716;22;19999;-80
2023/04/07 02:30:24;;;;;;;0.00;0.00;;;;;;;2.84;100.00;100727.50;6240871;22;20416;-79
2023/04/07 02:33:00;;;;;;;0.00;0.00;;;;;;;2.73;100.00;100709.22;6218216;22;20020;-80
2023/04/07 02:35:25;;;;;;;0.00;0.00;;;;;;;2.64;100.00;100699.66;6239522;22;20002;-80
2023/04/07 02:37:51;;;;;;;0.00;0.00;;;;;;;2.87;100.00;100735.19;6195516;22;20003;-80
2023/04/07 02:40:19;;;;;;;0.00;0.00;;;;;;;2.82;100.00;100713.41;6215516;22;20702;-78
2023/04/07 02:42:47;;;;;;;0.00;0.00;;;;;;;2.78;100.00;100709.44;6245960;22;20018;-78
2023/04/07 02:45:12;;;;;;;0.10;0.10;;;;;;;2.74;100.00;100705.50;6240573;22;20019;-78
2023/04/07 02:47:38;;;;;;;0.10;0.10;;;;;;;2.78;100.00;100712.97;6246324;22;20011;-79
2023/04/07 02:50:05;;;;;;;0.00;0.00;;;;;;;2.73;99.87;100706.53;6244374;22;20003;-77
2023/04/07 02:52:30;;;;;;;0.10;0.10;;;;;;;2.79;100.00;100724.63;6240805;22;20008;-78
2023/04/07 02:54:56;;;;;;;0.00;0.00;;;;;;;2.65;100.00;100712.97;6219774;22;20077;-78
2023/04/07 02:57:21;;;;;;;0.10;0.10;;;;;;;2.72;100.00;100707.56;6245998;22;20479;-78
2023/04/07 02:59:47;;;;;;;0.00;0.00;;;;;;;2.74;100.00;100717.13;6241524;22;20007;-77
2023/04/07 03:02:12;;;;;;;0.00;0.00;;;;;;;2.71;100.00;100709.44;6245136;22;20007;-79
2023/04/07 03:04:38;;;;;;;0.10;0.10;;;;;;;2.73;100.00;100709.22;6216885;22;20046;-79
2023/04/07 03:07:06;;;;;;;0.00;0.00;;;;;;;2.66;100.00;100709.25;6245939;22;20000;-77
2023/04/07 03:09:31;;;;;;;0.00;0.00;;;;;;;2.63;100.00;100693.44;6240281;22;20381;-77
2023/04/07 03:11:57;;;;;;;0.00;0.00;;;;;;;2.77;100.00;100705.06;6218357;22;20060;-78
2023/04/07 03:14:22;;;;;;;0.10;0.10;;;;;;;2.62;100.00;100687.19;6219576;22;20085;-78
2023/04/07 03:16:48;;;;;;;0.00;0.00;;;;;;;2.70;100.00;100688.03;6213715;22;20004;-78
2023/04/07 03:19:13;;;;;;;0.00;0.00;;;;;;;2.70;99.85;100688.88;6193982;22;20019;-79
2023/04/07 03:21:41;;;;;;;0.00;0.00;;;;;;;2.83;100.00;100704.22;6238065;22;20031;-78
2023/04/07 03:24:07;;;;;;;0.00;0.00;;;;;;;2.83;99.77;100703.41;6244538;22;20011;-77
2023/04/07 03:26:33;;;;;;;0.10;0.10;;;;;;;2.73;99.60;100691.16;6265370;22;19999;-77
2023/04/07 03:28:58;;;;;;;0.00;0.00;;;;;;;2.83;99.44;100715.03;6215371;22;20345;-78
2023/04/07 03:31:26;;;;;;;0.10;0.10;;;;;;;2.79;99.84;100709.25;6272193;22;20003;-77
2023/04/07 03:33:51;;;;;;;0.00;0.00;;;;;;;2.74;99.65;100710.91;6190885;22;20019;-77
2023/04/07 03:36:17;;;;;;;0.03;0.03;;;;;;;2.76;99.47;100714.19;6191492;22;20011;-76
2023/04/07 03:38:43;;;;;;;0.00;0.00;;;;;;;2.72;99.83;100707.56;6241350;22;20007;-77
2023/04/07 03:41:09;;;;;;;0.00;0.00;;;;;;;2.74;100.00;100710.91;6237628;22;19995;-77
2023/04/07 03:43:37;;;;;;;0.00;0.00;;;;;;;2.75;99.50;100715.25;6214977;22;20003;-77
2023/04/07 03:46:03;;;;;;;0.00;0.00;;;;;;;2.67;99.49;100704.66;6215183;22;20011;-77
2023/04/07 03:48:28;;;;;;;0.00;0.00;;;;;;;2.76;99.18;100722.31;6217656;22;20019;-76
2023/04/07 03:50:54;;;;;;;0.00;0.00;;;;;;;2.70;99.52;100717.75;6214056;22;20015;-76
2023/04/07 03:53:22;;;;;;;0.10;0.10;;;;;;;2.57;99.40;100699.66;6240694;22;20015;-77
2023/04/07 03:55:47;;;;;;;0.00;0.00;;;;;;;2.69;99.91;100718.81;6269123;22;20158;-78
2023/04/07 03:58:16;;;;;;;0.00;0.00;;;;;;;2.68;99.42;100717.13;6211158;22;20038;-77
2023/04/07 04:00:43;;;;;;;0.10;0.10;;;;;;;2.68;99.28;100722.53;6244981;22;20334;-77
2023/04/07 04:03:09;;;;;;;0.00;0.00;;;;;;;2.65;99.27;100712.16;6218200;22;20007;-78
2023/04/07 04:05:40;;;;;;;0.00;0.00;;;;;;;2.69;99.17;100724.19;6193030;22;20011;-77
2023/04/07 04:08:05;;;;;;;0.00;0.00;;;;;;;2.67;99.43;100716.28;6217979;22;20015;-77
2023/04/07 04:10:31;;;;;;;0.00;0.00;;;;;;;2.72;99.73;100721.09;6271692;22;20599;-78
2023/04/07 04:12:59;;;;;;;0.00;0.00;;;;;;;2.74;98.86;100716.28;6244467;22;20470;-78
2023/04/07 04:15:29;;;;;;;0.00;0.00;;;;;;;2.77;99.37;100732.94;6217811;22;20008;-77
2023/04/07 04:17:55;;;;;;;0.00;0.00;;;;;;;2.75;99.01;100728.78;6218401;22;20102;-77
2023/04/07 04:20:25;;;;;;;0.00;0.00;;;;;;;2.65;98.94;100712.16;6218311;22;20095;-78
2023/04/07 04:22:53;;;;;;;0.00;0.00;;;;;;;2.66;98.59;100714.63;6245461;22;20039;-77
2023/04/07 04:25:21;;;;;;;0.00;0.00;;;;;;;2.66;99.01;100713.78;6242745;22;19999;-77
2023/04/07 04:27:46;;;;;;;0.00;0.00;;;;;;;2.66;98.47;100727.28;6244243;22;20015;-78
2023/04/07 04:30:12;;;;;;;0.00;0.00;;;;;;;2.66;98.15;100735.38;6216691;22;20003;-76
2023/04/07 04:32:38;;;;;;;0.00;0.00;;;;;;;2.55;98.68;100732.25;6215764;23;20016;-78
2023/04/07 04:35:04;;;;;;;0.00;0.00;;;;;;;2.32;98.12;100710.22;6215965;23;20008;-77
2023/04/07 04:37:32;;;;;;;0.00;0.00;;;;;;;2.29;98.61;100738.44;6187239;23;20464;-77
2023/04/07 04:39:57;;;;;;;0.00;0.00;;;;;;;2.14;99.12;100735.91;6216552;23;20069;-77
2023/04/07 04:42:33;;;;;;;;;;;;;;;;;;;;;
2023/04/07 04:44:58;;;;;;;0.10;0.10;;;;;;;1.93;99.09;100753.06;6218684;23;20078;-78
2023/04/07 04:47:24;;;;;;;0.00;0.00;;;;;;;1.91;99.29;100757.81;6213513;23;20036;-77
2023/04/07 04:49:52;;;;;;;0.00;0.00;;;;;;;1.72;99.76;100743.19;6215668;23;20008;-78
2023/04/07 04:52:20;;;;;;;0.00;0.00;;;;;;;1.59;99.23;100740.44;6212592;23;20031;-78
2023/04/07 04:54:46;;;;;;;0.00;0.00;;;;;;;1.50;99.65;100747.84;6167704;23;20370;-77
2023/04/07 04:57:11;;;;;;;0.00;0.00;;;;;;;1.54;99.93;100765.31;6215819;23;20011;-78
2023/04/07 04:59:38;;;;;;;0.00;0.00;;;;;;;1.51;100.00;100763.81;6185523;23;20450;-76
2023/04/07 05:02:04;;;;;;;0.10;0.10;;;;;;;1.48;100.00;100755.31;6192112;23;20062;-77
2023/04/07 05:04:29;;;;;;;0.00;0.00;;;;;;;1.59;100.00;100762.00;6160112;23;20016;-78
2023/04/07 05:06:55;;;;;;;0.08;0.08;;;;;;;1.70;100.00;100775.75;6216397;23;20011;-78
2023/04/07 05:09:20;;;;;;;0.00;0.00;;;;;;;1.74;100.00;100776.22;6186078;23;20074;-77
2023/04/07 05:11:48;;;;;;;0.00;0.00;;;;;;;1.73;100.00;100779.94;6190334;23;20012;-77
2023/04/07 05:14:13;;;;;;;0.00;0.00;;;;;;;1.67;100.00;100764.56;6214181;23;20521;-77
2023/04/07 05:16:51;;;;;;;;;;;;;;;;;;;;;
2023/04/07 05:19:17;;;;;;;0.00;0.00;;;;;;;1.66;100.00;100760.19;6217875;23;20099;-78
2023/04/07 05:21:42;;;;;;;0.00;0.00;;;;;;;1.69;100.00;100773.25;6185710;23;20032;-77
2023/04/07 05:24:08;;;;;;;0.10;0.10;;;;;;;1.70;100.00;100775.75;6213842;23;20016;-78
2023/04/07 05:26:33;;;;;;;0.00;0.00;;;;;;;1.67;100.00;100786.13;6162252;23;20534;-78
2023/04/07 05:28:58;;;;;;;0.00;0.00;;;;;;;1.49;100.00;100768.59;6189612;23;20039;-78
2023/04/07 05:31:24;;;;;;;0.00;0.00;;;;;;;1.35;100.00;100759.56;6162622;23;20008;-78
2023/04/07 05:37:36;;;;;;;0.00;0.00;;;;;;;1.25;100.00;100755.56;6122091;23;20061;-77
2023/04/07 05:40:17;;;;;;;0.00;0.00;;;;;;;1.50;100.00;100802.59;6194500;23;20626;-81
2023/04/07 05:49:54;;;;;;;0.00;0.00;;;;;;;1.56;100.00;100791.03;5925289;24;20008;-80
2023/04/07 05:52:59;;;;;;;0.00;0.00;;;;;;;1.59;100.00;100788.97;6079391;23;20003;-81
2023/04/07 05:55:54;;;;;;;0.10;0.10;;;;;;;1.70;100.00;100797.31;6064164;23;20039;-79
2023/04/07 05:58:57;;;;;;;0.10;0.10;;;;;;;1.92;100.00;100816.13;6096254;23;20002;-77
2023/04/07 06:01:43;;;;;;;0.00;0.00;;;;;;;2.04;100.00;100824.47;6068795;23;20006;-77
2023/04/07 06:04:55;;;;;;;0.00;0.00;;;;;;;2.11;100.00;100827.22;6086515;23;20014;-79
2023/04/07 06:07:23;;;;;;;0.00;0.00;;;;;;;2.04;100.00;100813.69;6073545;23;20007;-79
2023/04/07 06:10:08;;;;;;;0.00;0.00;;;;;;;2.20;100.00;100831.41;6152558;23;20016;-79
2023/04/07 06:13:20;;;;;;;;;;;;;;;;;;;;;
2023/04/07 06:16:19;;;;;;;0.00;0.00;;;;;;;2.08;100.00;100787.97;6237055;22;20012;-81
2023/04/07 06:18:54;;;;;;;0.00;0.00;;;;;;;2.45;100.00;100837.09;6236099;23;20052;-76
2023/04/07 06:21:50;;;;;;;;;;;;;;;;;;;;;
2023/04/07 06:24:16;;;;;;;0.08;0.08;;;;;;;2.36;100.00;100806.75;6228381;23;20039;-80
2023/04/07 06:27:21;;;;;;;;;;;;;;;;;;;;;
2023/04/07 06:29:52;;;;;;;0.00;0.00;;;;;;;2.50;100.00;100806.81;6238008;23;20084;-79
2023/04/07 06:32:34;;;;;;;;;;;;;;;;;;;;;
2023/04/07 06:39:12;;;;;;;0.00;0.00;;;;;;;3.14;100.00;100867.63;6182707;23;20009;-82
2023/04/07 06:41:37;;;;;;;0.00;0.00;;;;;;;3.18;100.00;100849.13;6199723;22;20014;-78
2023/04/07 06:44:07;;;;;;;0.00;0.00;;;;;;;3.27;100.00;100840.63;6219078;22;20623;-77
2023/04/07 06:46:59;;;;;;;0.00;0.00;;;;;;;3.55;100.00;100866.59;6245171;22;20004;-78
2023/04/07 06:49:27;;;;;;;0.00;0.00;;;;;;;3.51;99.27;100835.63;6244588;22;20014;-81
2023/04/07 06:51:53;;;;;;;0.00;0.00;;;;;;;3.74;98.80;100855.97;6246965;22;20003;-77
2023/04/07 06:54:21;;;;;;;0.00;0.00;;;;;;;3.83;98.74;100858.25;6246000;22;20419;-76
2023/04/07 06:57:54;;;;;;;0.00;0.00;;;;;;;3.71;98.73;100838.31;6197501;22;20012;-82
2023/04/07 07:01:06;;;;;;;;;;;;;;;;;;;;;
2023/04/07 07:04:26;;;;;;;0.00;0.00;;;;;;;4.13;96.69;100867.75;6278716;22;20086;-78
2023/04/07 07:11:00;;;;;;;0.00;0.00;;;;;;;4.20;96.67;100855.03;6032267;23;20011;-77
2023/04/07 07:13:26;;;;;;;0.00;0.00;;;;;;;4.57;96.47;100893.25;5954830;23;20008;-78
2023/04/07 07:15:52;;;;;;;0.00;0.00;;;;;;;4.56;95.71;100880.75;6253832;22;20019;-77
2023/04/07 07:18:23;;;;;;;0.00;0.00;;;;;;;4.60;95.54;100868.44;6238373;22;20012;-78
2023/04/07 07:20:49;;;;;;;0.00;0.00;;;;;;;4.74;94.62;100876.50;6270206;22;19996;-78
2023/04/07 07:23:33;;;;;;;0.00;0.00;;;;;;;4.90;94.36;100889.53;6215333;22;20083;-77
2023/04/07 07:25:59;;;;;;;0.00;0.00;;;;;;;4.88;93.47;100873.47;6240683;22;20000;-77
2023/04/07 07:28:25;;;;;;;0.00;0.00;;;;;;;5.19;93.88;100906.25;6240892;22;20007;-77
2023/04/07 07:30:52;;;;;;;0.00;0.00;;;;;;;5.16;93.25;100883.13;6241527;22;20008;-77
2023/04/07 07:33:18;;;;;;;0.00;0.00;;;;;;;5.44;93.18;100900.03;6214348;22;20027;-76
2023/04/07 07:35:43;;;;;;;0.00;0.00;;;;;;;5.52;92.19;100894.31;6192016;22;20020;-78
2023/04/07 07:38:11;;;;;;;0.00;0.00;;;;;;;5.65;91.43;100887.97;6217533;22;20014;-76
2023/04/07 07:40:41;;;;;;;0.00;0.00;;;;;;;5.73;91.82;100879.53;6239538;22;20010;-77
2023/04/07 07:43:07;;;;;;;0.00;0.00;;;;;;;5.79;91.24;100885.97;6245046;22;20027;-77
2023/04/07 07:45:32;;;;;;;0.00;0.00;;;;;;;5.97;91.29;100891.44;6216190;22;20023;-76
2023/04/07 07:47:58;;;;;;;0.00;0.00;;;;;;;6.07;90.62;100889.03;6243580;22;20031;-77
2023/04/07 07:50:23;;;;;;;0.00;0.00;;;;;;;6.19;90.58;100882.88;6243466;22;20027;-77
2023/04/07 07:52:48;;;;;;;0.00;0.00;;;;;;;6.44;90.05;100905.38;6215513;22;20030;-78
2023/04/07 07:55:14;;;;;;;0.00;0.00;;;;;;;6.55;89.32;100894.81;6245096;22;20061;-76
2023/04/07 07:57:42;;;;;;;0.00;0.00;;;;;;;6.54;89.74;100874.97;6239393;22;20007;-78
2023/04/07 08:00:32;;;;;;;0.00;0.00;;;;;;;6.87;89.15;100900.03;6243863;22;20004;-80
2023/04/07 08:10:20;;;;;;;;;;;;;;;;;;;;;
2023/04/07 08:17:07;;;;;;;;;;;;;;;;;;;;;
2023/04/07 08:24:05;;;;;;;;;;;;;;;;;;;;;
2023/04/07 08:30:14;;;;;;;;;;;;;;;;;;;;;
2023/04/07 08:36:37;;;;;;;0.00;0.00;;;;;;;25.15;35.79;100942.75;6048548;23;20094;-80
2023/04/07 08:54:36;;;;;;;;;;;;;;;;;;;;;
2023/04/07 08:58:04;;;;;;;;;;;;;;;;;;;;;
2023/04/07 09:01:18;;;;;;;;;;;;;;;;;;;;;
2023/04/07 09:04:26;;;;;;;;;;;;;;;;;;;;;
2023/04/07 09:11:30;;;;;;;;;;;;;;;;;;;;;
2023/04/07 09:18:25;;;;;;;;;;;;;;;;;;;;;
2023/04/07 09:35:57;;;;;;;;;;;;;;;;;;;;;
2023/04/07 10:16:11;;;;;;;0.00;0.00;;;;;;;45.98;10.18;100912.66;6155639;23;20100;-81
2023/04/07 10:22:32;;;;;;;0.00;0.00;;;;;;;46.14;10.65;100907.63;6122016;23;20021;-81
2023/04/07 10:29:01;;;;;;;;;;;;;;;;;;;;;
2023/04/07 10:32:07;;;;;;;0.00;0.00;;;;;;;47.91;9.84;100900.19;6121206;23;20090;-79
2023/04/07 10:35:20;;;;;;;0.00;0.00;;;;;;;48.75;9.08;100896.88;6127635;23;20010;-79
2023/04/07 10:38:09;;;;;;;0.00;0.00;;;;;;;49.02;9.43;100903.25;6114171;23;20010;-76
2023/04/07 10:40:46;;;;;;;0.00;0.00;;;;;;;48.15;9.56;100896.13;6097408;23;20437;-77
2023/04/07 10:43:36;;;;;;;0.00;0.00;;;;;;;47.60;9.64;100892.34;6264792;22;20003;-78
2023/04/07 10:46:02;;;;;;;0.00;0.00;;;;;;;46.08;10.11;100877.84;6274294;22;20029;-76
2023/04/07 10:48:35;;;;;;;0.00;0.00;;;;;;;45.59;10.39;100878.19;6258428;22;20015;-78
2023/04/07 10:51:19;;;;;;;;;;;;;;;;;;;;;
2023/04/07 10:54:24;;;;;;;0.00;0.00;;;;;;;47.22;9.97;100886.50;6311537;22;20074;-79
2023/04/07 10:57:16;;;;;;;0.00;0.00;;;;;;;47.43;9.91;100889.31;6257343;22;20003;-80
2023/04/07 11:00:10;;;;;;;0.00;0.00;;;;;;;47.85;9.33;100887.78;6273141;22;20029;-78
2023/04/07 11:02:57;;;;;;;0.00;0.00;;;;;;;48.51;9.59;100884.94;6270541;22;20014;-78
2023/04/07 11:08:49;;;;;;;0.00;0.00;;;;;;;38.60;12.05;100872.97;6257610;22;20149;-79
2023/04/07 11:11:36;;;;;;;0.00;0.00;;;;;;;33.56;15.58;100843.00;6150225;23;20083;-78
2023/04/07 11:14:04;;;;;;;0.00;0.00;;;;;;;36.23;15.29;100839.09;6301271;22;20344;-79
2023/04/07 11:17:17;;;;;;;0.00;0.00;;;;;;;41.08;12.22;100846.16;6274058;22;20092;-77
2023/04/07 11:20:10;;;;;;;0.00;0.00;;;;;;;43.77;11.07;100870.16;6155564;23;20005;-79
2023/04/07 11:23:08;;;;;;;0.00;0.00;;;;;;;45.85;9.22;100880.41;6154548;23;20013;-77
2023/04/07 11:29:33;;;;;;;0.00;0.00;;;;;;;44.66;8.70;100872.63;6073072;23;20010;-74
2023/04/07 11:32:21;;;;;;;0.00;0.00;;;;;;;44.54;9.15;100877.34;6245878;22;20003;-76
2023/04/07 11:34:56;;;;;;;0.00;0.00;;;;;;;38.93;11.46;100861.44;6302885;22;20694;-75
2023/04/07 11:37:31;;;;;;;0.00;0.00;;;;;;;35.96;13.84;100849.31;6305540;22;19999;-76
2023/04/07 11:39:58;;;;;;;0.00;0.00;;;;;;;39.31;13.13;100857.88;6302504;22;20417;-76
2023/04/07 11:42:37;;;;;;;0.00;0.00;;;;;;;43.26;11.55;100871.00;6304475;22;20011;-76
2023/04/07 11:45:25;;;;;;;0.00;0.00;;;;;;;45.46;10.18;100863.28;6277235;22;20007;-77
2023/04/07 11:47:53;;;;;;;0.00;0.00;;;;;;;47.00;9.16;100864.75;6302275;22;20034;-76
2023/04/07 11:50:40;;;;;;;0.00;0.00;;;;;;;48.19;8.15;100864.78;6277479;22;20092;-76
2023/04/07 11:53:05;;;;;;;0.00;0.00;;;;;;;49.61;7.84;100865.81;6253806;22;20007;-77
2023/04/07 11:55:31;;;;;;;0.00;0.00;;;;;;;50.62;7.66;100866.75;6253092;22;20011;-76
2023/04/07 11:58:10;;;;;;;0.00;0.00;;;;;;;51.62;7.13;100859.78;6274870;22;20003;-77
2023/04/07 12:00:56;;;;;;;0.00;0.00;;;;;;;52.11;7.64;100859.00;6273220;22;20026;-76
2023/04/07 12:03:21;;;;;;;0.00;0.00;;;;;;;53.04;7.37;100873.28;6273966;22;20057;-74
2023/04/07 12:05:47;;;;;;;0.00;0.00;;;;;;;53.78;7.23;100872.75;6271196;22;20012;-77
2023/04/07 12:08:16;;;;;;;0.00;0.00;;;;;;;53.16;6.04;100863.00;6267309;22;20007;-75
2023/04/07 12:11:13;;;;;;;;;;;;;;;;;;;;;
2023/04/07 12:13:42;;;;;;;0.00;0.00;;;;;;;53.98;6.42;100865.44;6272648;22;20083;-74
2023/04/07 12:16:08;;;;;;;0.00;0.00;;;;;;;51.78;6.59;100861.75;6270190;22;20016;-80
2023/04/07 12:18:36;;;;;;;0.00;0.00;;;;;;;45.45;8.58;100832.84;6225456;22;20008;-81
2023/04/07 12:21:04;;;;;;;0.00;0.00;;;;;;;40.21;10.79;100831.31;6226216;22;20049;-79
2023/04/07 12:23:49;;;;;;;0.00;0.00;;;;;;;36.15;12.76;100816.44;6219182;22;20012;-79
2023/04/07 12:26:27;;;;;;;;;;;;;;;;;;;;;
2023/04/07 12:29:03;;;;;;;;;;;;;;;;;;;;;
2023/04/07 12:31:42;;;;;;;;;;;;;;;;;;;;;
2023/04/07 12:34:21;;;;;;;;;;;;;;;;;;;;;
2023/04/07 12:37:03;;;;;;;;;;;;;;;;;;;;;
2023/04/07 12:39:32;;;;;;;0.00;0.00;;;;;;;42.37;10.76;100840.09;6275033;22;20067;-79
2023/04/07 12:42:15;;;;;;;;;;;;;;;;;;;;;
2023/04/07 12:44:54;;;;;;;;;;;;;;;;;;;;;
2023/04/07 12:48:02;;;;;;;;;;;;;;;;;;;;;
2023/04/07 12:50:30;;;;;;;0.00;0.00;;;;;;;49.33;6.41;100840.47;6277421;22;20034;-79
2023/04/07 12:53:14;;;;;;;;;;;;;;;;;;;;;
2023/04/07 12:55:46;;;;;;;0.00;0.00;;;;;;;51.34;6.04;100834.69;6275583;22;20235;-82
2023/04/07 13:08:36;;;;;;;0.00;0.00;;;;;;;52.83;5.52;100838.84;6219651;23;20019;-81
2023/04/07 13:11:52;;;;;;;;;;;;;;;;;;;;;
2023/04/07 13:24:23;;;;;;;0.00;0.00;;;;;;;48.69;7.46;100809.03;6048330;23;20011;-79
2023/04/07 13:30:54;;;;;;;;;;;;;;;;;;;;;
2023/04/07 13:33:46;;;;;;;0.00;0.00;;;;;;;52.80;5.34;100816.63;6263239;22;20510;-80
2023/04/07 13:36:14;;;;;;;0.00;0.00;;;;;;;53.37;5.70;100798.88;6156225;23;20016;-81
2023/04/07 13:38:42;;;;;;;0.00;0.00;;;;;;;54.00;5.70;100809.31;6105094;23;20063;-81
2023/04/07 13:41:25;;;;;;;;;;;;;;;;;;;;;
2023/04/07 13:43:59;;;;;;;0.00;0.00;;;;;;;54.48;5.54;100801.31;6272319;22;20091;-76
2023/04/07 13:46:34;;;;;;;0.00;0.00;;;;;;;53.97;5.29;100810.44;6277933;22;20000;-77
2023/04/07 13:48:59;;;;;;;0.00;0.00;;;;;;;54.53;4.97;100800.41;6252066;22;20004;-78
2023/04/07 13:51:34;;;;;;;0.00;0.00;;;;;;;54.81;5.31;100787.22;6276429;22;20014;-79
2023/04/07 13:54:02;;;;;;;0.00;0.00;;;;;;;54.58;5.14;100793.59;6270706;22;20081;-77
2023/04/07 13:56:30;;;;;;;0.00;0.00;;;;;;;54.99;5.11;100790.47;6241291;22;20069;-74
2023/04/07 13:59:03;;;;;;;0.00;0.00;;;;;;;55.01;4.91;100790.69;6272467;22;20074;-77
2023/04/07 14:01:28;;;;;;;0.00;0.00;;;;;;;53.05;5.09;100782.22;6248702;22;20039;-79
2023/04/07 14:03:54;;;;;;;0.00;0.00;;;;;;;51.19;4.96;100787.66;6273106;22;20015;-79
2023/04/07 14:06:21;;;;;;;0.00;0.00;;;;;;;46.07;6.39;100770.13;6238420;22;20057;-77
2023/04/07 14:08:55;;;;;;;0.00;0.00;;;;;;;40.37;8.50;100758.72;6240315;22;20061;-78
2023/04/07 14:11:21;;;;;;;0.00;0.00;;;;;;;36.22;10.52;100764.28;6240993;22;20027;-78
2023/04/07 14:13:47;;;;;;;0.00;0.00;;;;;;;36.77;11.41;100761.22;6238091;22;20444;-78
2023/04/07 14:16:12;;;;;;;0.00;0.00;;;;;;;41.38;9.93;100770.00;6264555;22;20023;-76
2023/04/07 14:18:38;;;;;;;0.00;0.00;;;;;;;45.43;8.07;100780.56;6266259;22;20082;-79
2023/04/07 14:21:06;;;;;;;0.00;0.00;;;;;;;47.72;7.04;100764.50;6242326;22;20015;-78
2023/04/07 14:23:32;;;;;;;0.00;0.00;;;;;;;48.63;6.77;100773.44;6263987;22;20075;-77
2023/04/07 14:25:58;;;;;;;0.00;0.00;;;;;;;47.76;6.17;100766.34;6268549;22;20031;-78
2023/04/07 14:28:23;;;;;;;0.00;0.00;;;;;;;48.53;6.32;100769.22;6263197;22;21006;-79
2023/04/07 14:30:49;;;;;;;0.00;0.00;;;;;;;49.30;6.24;100765.25;6268672;22;20028;-77
2023/04/07 14:33:16;;;;;;;0.00;0.00;;;;;;;49.63;5.57;100764.38;6240272;22;20373;-77
2023/04/07 14:35:49;;;;;;;0.00;0.00;;;;;;;49.73;5.91;100761.97;6268627;22;20115;-76
2023/04/07 14:38:14;;;;;;;0.00;0.00;;;;;;;49.26;6.11;100769.22;6243034;22;20018;-76
2023/04/07 14:40:40;;;;;;;0.00;0.00;;;;;;;49.56;5.22;100767.84;6234879;22;20821;-76
2023/04/07 14:43:06;;;;;;;0.00;0.00;;;;;;;49.18;5.69;100770.25;6243270;22;20438;-76
2023/04/07 14:45:33;;;;;;;0.00;0.00;;;;;;;47.46;6.32;100758.81;6265227;22;20004;-78
2023/04/07 14:47:59;;;;;;;0.00;0.00;;;;;;;47.53;5.83;100748.81;6270014;22;20000;-79
2023/04/07 14:50:24;;;;;;;0.00;0.00;;;;;;;47.66;6.04;100757.81;6270056;22;20034;-77
2023/04/07 14:52:50;;;;;;;0.00;0.00;;;;;;;47.66;6.33;100748.34;6239773;22;20083;-78
2023/04/07 14:55:15;;;;;;;0.00;0.00;;;;;;;47.49;6.32;100736.69;6270616;22;20723;-78
2023/04/07 14:57:41;;;;;;;0.00;0.00;;;;;;;46.76;6.70;100746.44;6268028;22;20078;-78
2023/04/07 15:00:08;;;;;;;0.00;0.00;;;;;;;46.94;6.24;100751.03;6270321;22;20346;-77
2023/04/07 15:02:35;;;;;;;0.00;0.00;;;;;;;47.47;5.89;100739.31;6264989;22;20496;-77
2023/04/07 15:05:04;;;;;;;0.00;0.00;;;;;;;47.46;5.70;100755.09;6268881;22;20613;-79
2023/04/07 15:07:29;;;;;;;0.00;0.00;;;;;;;47.64;6.15;100743.09;6270092;22;20000;-79
2023/04/07 15:09:55;;;;;;;0.00;0.00;;;;;;;47.52;6.12;100735.66;6215068;22;20011;-79
2023/04/07 15:12:21;;;;;;;0.00;0.00;;;;;;;46.18;6.72;100749.25;6242775;22;20008;-78
2023/04/07 15:14:50;;;;;;;0.00;0.00;;;;;;;45.83;6.99;100748.06;6269248;22;20026;-78
2023/04/07 15:17:15;;;;;;;0.00;0.00;;;;;;;46.33;6.66;100749.16;6269274;22;20495;-77
2023/04/07 15:19:41;;;;;;;0.00;0.00;;;;;;;46.46;6.72;100754.56;6215858;22;20007;-77
2023/04/07 15:22:06;;;;;;;0.00;0.00;;;;;;;45.44;7.13;100745.44;6243224;22;20008;-77